Time;durP1;ratioP1;P1;durP2;ratioP2;P2;SDS_P1;SDS_P2;PMS_P1;PMS_P2;Temp;Humidity;BMP_temperature;BMP_pressure;BME280_temperature;BME280_humidity;BME280_pressure;Samples;Min_cycle;Max_cycle;Signal;HPM_P1;HPM_P2
2023/01/19 00:00:05;;;;;;;19.80;15.20;;;2.40;99.90;;;;;;4961084;28;20223;-86
2023/01/19 00:02:31;;;;;;;22.50;14.87;;;2.40;99.90;;;;;;4963000;28;20188;-86
2023/01/19 00:04:58;;;;;;;16.70;13.73;;;2.40;99.90;;;;;;4978763;28;20215;-85
2023/01/19 00:07:23;;;;;;;18.00;14.03;;;2.50;99.90;;;;;;4984432;28;20239;-86
2023/01/19 00:10:15;;;;;;;18.17;13.80;;;2.50;99.90;;;;;;4998345;28;20192;-86
2023/01/19 00:12:44;;;;;;;17.10;14.10;;;2.50;99.90;;;;;;4970825;28;20175;-85
2023/01/19 00:15:17;;;;;;;15.83;13.87;;;2.40;99.90;;;;;;4961509;28;20579;-86
2023/01/19 00:17:43;;;;;;;16.13;13.17;;;2.40;99.90;;;;;;4961746;28;20203;-85
2023/01/19 00:20:10;;;;;;;15.77;12.87;;;2.40;99.90;;;;;;4963074;28;20222;-85
2023/01/19 00:22:36;;;;;;;17.70;13.97;;;2.40;99.90;;;;;;4965148;28;20175;-85
2023/01/19 00:25:02;;;;;;;22.30;14.83;;;2.40;99.90;;;;;;4964671;28;20229;-86
2023/01/19 00:27:29;;;;;;;16.50;13.37;;;2.40;99.90;;;;;;4967181;28;20299;-86
2023/01/19 00:29:54;;;;;;;16.20;12.47;;;2.50;99.90;;;;;;4971852;28;20652;-86
2023/01/19 00:32:20;;;;;;;17.43;13.17;;;2.60;99.90;;;;;;4983191;28;20210;-85
2023/01/19 00:34:48;;;;;;;16.67;13.57;;;2.50;99.90;;;;;;4982869;28;20183;-84
2023/01/19 00:37:15;;;;;;;19.37;13.73;;;2.50;99.90;;;;;;4982378;28;20174;-85
2023/01/19 00:39:41;;;;;;;15.57;13.30;;;2.50;99.90;;;;;;4981564;28;20183;-85
2023/01/19 00:44:54;;;;;;;15.93;13.47;;;2.50;99.90;;;;;;4993705;28;20372;-85
2023/01/19 00:47:20;;;;;;;17.20;14.73;;;2.40;99.90;;;;;;4975762;28;20188;-84
2023/01/19 00:49:49;;;;;;;18.73;13.93;;;2.40;99.90;;;;;;4964141;28;20632;-86
2023/01/19 00:52:21;;;;;;;17.00;13.50;;;2.50;99.90;;;;;;4961775;28;20639;-85
2023/01/19 00:54:46;;;;;;;19.23;13.27;;;2.40;99.90;;;;;;4960639;28;20196;-86
2023/01/19 00:57:13;;;;;;;17.60;13.70;;;2.30;99.90;;;;;;4961061;28;20182;-86
2023/01/19 00:59:39;;;;;;;17.10;14.20;;;2.30;99.90;;;;;;4966305;28;20172;-83
2023/01/19 01:02:04;;;;;;;19.00;14.97;;;2.30;99.90;;;;;;4965988;28;20172;-85
2023/01/19 01:04:30;;;;;;;19.57;14.50;;;2.30;99.90;;;;;;4968411;28;20204;-85
2023/01/19 01:06:56;;;;;;;20.10;14.93;;;2.30;99.90;;;;;;4963299;28;20171;-84
2023/01/19 01:09:23;;;;;;;19.87;14.70;;;2.30;99.90;;;;;;4959611;28;20531;-85
2023/01/19 01:11:49;;;;;;;18.40;14.50;;;2.30;99.90;;;;;;4959917;28;20179;-85
2023/01/19 01:14:14;;;;;;;19.43;15.33;;;2.20;99.90;;;;;;4960073;28;20172;-86
2023/01/19 01:16:40;;;;;;;18.20;14.47;;;2.20;99.90;;;;;;4977181;28;20639;-85
2023/01/19 01:19:06;;;;;;;19.40;14.37;;;2.30;99.90;;;;;;4959267;28;20620;-85
2023/01/19 01:21:33;;;;;;;21.67;15.30;;;2.10;99.90;;;;;;4988295;28;20190;-84
2023/01/19 01:23:59;;;;;;;20.30;14.63;;;2.20;99.90;;;;;;4980994;28;20171;-85
2023/01/19 01:26:25;;;;;;;19.57;13.80;;;2.10;99.90;;;;;;4984553;28;20241;-85
2023/01/19 01:28:50;;;;;;;19.97;14.23;;;2.10;99.90;;;;;;4960264;28;20600;-84
2023/01/19 01:31:18;;;;;;;18.87;14.87;;;2.00;99.90;;;;;;4976947;28;20206;-85
2023/01/19 01:33:43;;;;;;;17.93;14.13;;;2.00;99.90;;;;;;4976131;28;20180;-85
2023/01/19 01:36:12;;;;;;;18.60;13.83;;;2.10;99.90;;;;;;4959042;28;20199;-85
2023/01/19 01:38:39;;;;;;;20.43;14.73;;;2.10;99.90;;;;;;4958516;28;20186;-85
2023/01/19 01:41:05;;;;;;;20.03;14.57;;;2.20;99.90;;;;;;4976050;28;20195;-86
2023/01/19 01:43:47;;;;;;;19.83;14.93;;;2.10;99.90;;;;;;4973136;28;20187;-85
2023/01/19 01:46:15;;;;;;;17.53;13.60;;;1.90;99.90;;;;;;4998248;28;20244;-85
2023/01/19 01:49:07;;;;;;;20.17;14.17;;;2.10;99.90;;;;;;4982748;28;20159;-84
2023/01/19 01:51:45;;;;;;;19.80;15.47;;;2.10;99.90;;;;;;4998581;28;20178;-84
2023/01/19 01:54:32;;;;;;;18.00;13.73;;;2.30;99.90;;;;;;4982063;28;20152;-85
2023/01/19 01:57:03;;;;;;;20.03;14.63;;;2.30;99.90;;;;;;4982607;28;20196;-85
2023/01/19 01:59:39;;;;;;;16.33;13.50;;;2.30;99.90;;;;;;4964681;28;20256;-85
2023/01/19 02:05:35;;;;;;;17.67;12.83;;;2.10;99.90;;;;;;4976912;28;20237;-83
2023/01/19 02:13:48;;;;;;;17.50;13.50;;;2.20;99.90;;;;;;4993042;28;20247;-86
2023/01/19 02:16:20;;;;;;;17.77;14.10;;;2.40;99.90;;;;;;4989872;28;20203;-87
2023/01/19 02:18:45;;;;;;;15.90;12.83;;;2.20;99.90;;;;;;4975242;28;20200;-87
2023/01/19 02:21:23;;;;;;;19.77;13.63;;;2.20;99.90;;;;;;4978000;28;20200;-86
2023/01/19 02:23:57;;;;;;;26.60;13.60;;;2.10;99.90;;;;;;4980266;28;20198;-86
2023/01/19 02:26:37;;;;;;;14.70;12.20;;;2.00;99.90;;;;;;4981050;28;20212;-83
2023/01/19 02:29:09;;;;;;;17.67;13.47;;;2.30;99.90;;;;;;4969734;28;20230;-85
2023/01/19 02:31:36;;;;;;;19.83;13.10;;;2.10;99.90;;;;;;4958133;28;20168;-85
2023/01/19 02:34:03;;;;;;;16.87;13.53;;;2.30;99.90;;;;;;4961170;28;20280;-84
2023/01/19 02:37:11;;;;;;;18.23;12.77;;;2.20;99.90;;;;;;4962019;28;20183;-84
2023/01/19 02:39:50;;;;;;;22.00;13.73;;;2.30;99.90;;;;;;4903570;29;20173;-85
2023/01/19 02:42:29;;;;;;;19.60;12.80;;;2.20;99.90;;;;;;4926978;29;20536;-84
2023/01/19 02:44:56;;;;;;;17.50;13.57;;;2.20;99.90;;;;;;4962716;28;20219;-85
2023/01/19 02:47:23;;;;;;;17.60;13.23;;;2.30;99.90;;;;;;4981537;28;20183;-84
2023/01/19 02:49:59;;;;;;;16.30;12.57;;;2.10;99.90;;;;;;4981262;28;20209;-86
2023/01/19 02:52:25;;;;;;;18.77;12.67;;;2.00;99.90;;;;;;4980562;28;20171;-84
2023/01/19 02:55:14;;;;;;;17.67;13.30;;;2.00;99.90;;;;;;4983421;28;20226;-84
2023/01/19 02:57:50;;;;;;;19.20;13.70;;;1.90;99.90;;;;;;4983262;28;20202;-84
2023/01/19 03:00:50;;;;;;;19.07;13.50;;;2.00;99.90;;;;;;4981469;28;20254;-85
2023/01/19 03:03:27;;;;;;;16.60;12.60;;;2.20;99.90;;;;;;4981094;28;20175;-85
2023/01/19 03:05:56;;;;;;;20.67;12.20;;;2.30;99.90;;;;;;4980329;28;20729;-85
2023/01/19 03:09:08;;;;;;;17.00;13.50;;;2.40;99.90;;;;;;4979848;28;20175;-85
2023/01/19 03:11:40;;;;;;;17.53;12.90;;;2.30;99.90;;;;;;4954669;28;20179;-85
2023/01/19 03:14:20;;;;;;;16.77;12.40;;;2.40;99.90;;;;;;4980217;28;20194;-84
2023/01/19 03:16:58;;;;;;;21.03;13.20;;;2.30;99.90;;;;;;4980886;28;20174;-85
2023/01/19 03:19:41;;;;;;;17.07;12.77;;;2.20;99.90;;;;;;4979844;28;20241;-85
2023/01/19 03:22:18;;;;;;;18.10;12.40;;;2.20;99.90;;;;;;4978397;28;20244;-85
2023/01/19 03:24:45;;;;;;;21.10;12.70;;;2.20;99.90;;;;;;4979548;28;20230;-85
2023/01/19 03:27:24;;;;;;;18.63;12.77;;;2.20;99.90;;;;;;4980209;28;20222;-84
2023/01/19 03:29:56;;;;;;;19.30;12.13;;;2.10;99.90;;;;;;4979788;28;20175;-84
2023/01/19 03:32:30;;;;;;;20.77;12.47;;;2.10;99.90;;;;;;4980006;28;20226;-85
2023/01/19 03:34:59;;;;;;;17.87;13.63;;;2.20;99.90;;;;;;4979778;28;20182;-85
2023/01/19 03:37:28;;;;;;;17.67;13.77;;;2.40;99.90;;;;;;4997088;28;20171;-85
2023/01/19 03:39:54;;;;;;;17.93;12.97;;;2.40;99.90;;;;;;4997269;28;20639;-84
2023/01/19 03:42:21;;;;;;;19.53;13.37;;;2.40;99.90;;;;;;4978988;28;20266;-84
2023/01/19 03:44:49;;;;;;;21.57;13.97;;;2.50;99.90;;;;;;4983167;28;20217;-86
2023/01/19 03:47:17;;;;;;;20.87;13.10;;;2.50;99.90;;;;;;4964021;28;20183;-85
2023/01/19 03:49:45;;;;;;;17.90;12.27;;;2.60;99.90;;;;;;4979396;28;20171;-84
2023/01/19 03:52:13;;;;;;;18.63;12.47;;;2.80;99.90;;;;;;4979315;28;20270;-84
2023/01/19 03:54:39;;;;;;;21.60;13.67;;;2.60;99.90;;;;;;4976451;28;20246;-84
2023/01/19 03:57:05;;;;;;;22.70;13.27;;;2.50;99.90;;;;;;4999356;28;20171;-84
2023/01/19 03:59:31;;;;;;;20.67;13.00;;;2.50;99.90;;;;;;4982279;28;20210;-85
2023/01/19 04:01:57;;;;;;;16.47;12.87;;;2.60;99.90;;;;;;4979561;28;20179;-85
2023/01/19 04:04:24;;;;;;;17.63;12.80;;;2.50;99.90;;;;;;4979109;28;20226;-85
2023/01/19 04:06:50;;;;;;;21.50;12.83;;;2.40;99.90;;;;;;4979776;28;20178;-85
2023/01/19 04:09:15;;;;;;;17.37;12.43;;;2.30;99.90;;;;;;4979098;28;20746;-85
2023/01/19 04:11:41;;;;;;;17.63;12.63;;;2.30;99.90;;;;;;4979156;28;20179;-84
2023/01/19 04:14:08;;;;;;;15.30;12.77;;;2.30;99.90;;;;;;4981791;28;20674;-86
2023/01/19 04:16:34;;;;;;;18.23;12.47;;;2.20;99.90;;;;;;5002680;28;20174;-83
2023/01/19 04:19:00;;;;;;;18.83;12.83;;;2.20;99.90;;;;;;4988700;28;20250;-84
2023/01/19 04:21:25;;;;;;;18.77;13.70;;;2.10;99.90;;;;;;4980828;28;20218;-86
2023/01/19 04:23:52;;;;;;;18.77;13.33;;;2.10;99.90;;;;;;4984612;28;20186;-84
2023/01/19 04:26:18;;;;;;;19.10;11.87;;;2.20;99.90;;;;;;4988449;28;20237;-85
2023/01/19 04:28:43;;;;;;;20.93;12.93;;;2.20;99.90;;;;;;4991002;28;20171;-84
2023/01/19 04:31:11;;;;;;;18.00;13.17;;;2.10;99.90;;;;;;5001269;28;20202;-85
2023/01/19 04:33:36;;;;;;;20.83;13.63;;;2.30;99.90;;;;;;4999115;28;20182;-85
2023/01/19 04:36:02;;;;;;;20.97;14.30;;;2.30;99.90;;;;;;4985881;28;20283;-85
2023/01/19 04:38:31;;;;;;;18.77;14.20;;;2.30;99.90;;;;;;4978919;28;20236;-85
2023/01/19 04:40:57;;;;;;;23.97;14.57;;;2.20;99.90;;;;;;4978923;28;20266;-85
2023/01/19 04:43:22;;;;;;;27.97;15.47;;;2.20;99.90;;;;;;4979027;28;20229;-86
2023/01/19 04:45:49;;;;;;;23.63;15.63;;;2.40;99.90;;;;;;4981641;28;20211;-85
2023/01/19 04:48:15;;;;;;;22.27;15.30;;;2.40;99.90;;;;;;5002473;28;20167;-86
2023/01/19 04:50:43;;;;;;;21.87;15.10;;;2.30;99.90;;;;;;5002182;28;20151;-85
2023/01/19 04:53:09;;;;;;;21.00;15.27;;;2.50;99.90;;;;;;5002840;28;20183;-85
2023/01/19 04:55:41;;;;;;;25.17;16.53;;;2.40;99.90;;;;;;5019002;28;20188;-86
2023/01/19 04:58:11;;;;;;;22.43;17.00;;;2.30;99.90;;;;;;5019565;28;20190;-85
2023/01/19 05:00:59;;;;;;;25.77;16.53;;;2.50;99.90;;;;;;5002726;28;20242;-86
2023/01/19 05:03:24;;;;;;;23.73;17.00;;;2.40;99.90;;;;;;4991691;28;20198;-84
2023/01/19 05:06:06;;;;;;;26.73;16.80;;;2.40;99.90;;;;;;4989586;28;20210;-85
2023/01/19 05:08:50;;;;;;;23.50;16.20;;;2.40;99.90;;;;;;4985121;28;20167;-85
2023/01/19 05:11:16;;;;;;;26.10;18.37;;;2.30;99.90;;;;;;4978606;28;20257;-86
2023/01/19 05:13:42;;;;;;;26.53;17.37;;;2.30;99.90;;;;;;4978472;28;20262;-86
2023/01/19 05:16:07;;;;;;;25.20;17.27;;;2.20;99.90;;;;;;4979370;28;20178;-85
2023/01/19 05:18:35;;;;;;;27.40;18.33;;;2.20;99.90;;;;;;4989963;28;20197;-84
2023/01/19 05:21:02;;;;;;;24.63;17.73;;;2.20;99.90;;;;;;5001072;28;20194;-84
2023/01/19 05:23:31;;;;;;;26.83;17.80;;;2.30;99.90;;;;;;4983298;28;20175;-86
2023/01/19 05:26:02;;;;;;;31.43;19.73;;;2.30;99.90;;;;;;4978446;28;20211;-85
2023/01/19 05:28:29;;;;;;;29.93;18.67;;;2.30;99.90;;;;;;5009760;28;20170;-84
2023/01/19 05:30:55;;;;;;;26.60;18.10;;;2.20;99.90;;;;;;4987300;28;20175;-85
2023/01/19 05:33:22;;;;;;;29.07;19.60;;;2.30;99.90;;;;;;4978107;28;20183;-85
2023/01/19 05:35:52;;;;;;;26.43;18.50;;;2.20;99.90;;;;;;4978971;28;20194;-86
2023/01/19 05:38:19;;;;;;;32.00;18.67;;;2.10;99.90;;;;;;4978345;28;20175;-86
2023/01/19 05:40:47;;;;;;;26.57;18.30;;;2.10;99.90;;;;;;4979018;28;20175;-85
2023/01/19 05:43:13;;;;;;;28.53;19.30;;;2.20;99.90;;;;;;4982298;28;20730;-85
2023/01/19 05:45:40;;;;;;;26.80;18.53;;;2.20;99.90;;;;;;4996454;28;20246;-83
2023/01/19 05:48:07;;;;;;;30.00;18.53;;;2.10;99.90;;;;;;4998706;28;20175;-83
2023/01/19 05:50:33;;;;;;;28.43;18.10;;;2.20;99.90;;;;;;4988573;28;20178;-85
2023/01/19 05:52:59;;;;;;;28.53;18.17;;;2.10;99.90;;;;;;4980336;28;20175;-85
2023/01/19 05:55:26;;;;;;;28.20;18.17;;;1.80;99.90;;;;;;4980439;28;20338;-86
2023/01/19 05:57:53;;;;;;;28.37;18.77;;;2.00;99.90;;;;;;4978290;28;20190;-86
2023/01/19 06:00:19;;;;;;;29.33;17.67;;;2.00;99.90;;;;;;4978828;28;20175;-84
2023/01/19 06:02:47;;;;;;;25.67;17.07;;;2.00;99.90;;;;;;4978312;28;20641;-85
2023/01/19 06:05:15;;;;;;;27.77;18.00;;;1.90;99.90;;;;;;4978901;28;20265;-84
2023/01/19 06:07:44;;;;;;;28.93;18.10;;;2.00;99.90;;;;;;4979938;28;20175;-86
2023/01/19 06:10:11;;;;;;;27.13;17.50;;;2.00;99.90;;;;;;4982046;28;20171;-85
2023/01/19 06:12:40;;;;;;;28.27;17.87;;;2.00;99.90;;;;;;4982065;28;20186;-85
2023/01/19 06:15:09;;;;;;;28.53;17.67;;;2.00;99.90;;;;;;4965694;28;20269;-85
2023/01/19 06:17:35;;;;;;;29.33;16.53;;;2.00;99.90;;;;;;4982176;28;20183;-85
2023/01/19 06:20:01;;;;;;;29.40;17.53;;;2.10;99.90;;;;;;4974637;28;20686;-85
2023/01/19 06:22:27;;;;;;;27.90;18.30;;;2.00;99.90;;;;;;4962180;28;20183;-85
2023/01/19 06:24:53;;;;;;;27.80;17.57;;;2.10;99.90;;;;;;4962825;28;20282;-87
2023/01/19 06:27:20;;;;;;;25.40;16.50;;;2.10;99.90;;;;;;4962120;28;20176;-84
2023/01/19 06:29:45;;;;;;;26.00;17.80;;;2.20;99.90;;;;;;4963370;28;20167;-86
2023/01/19 06:32:12;;;;;;;24.97;16.10;;;2.10;99.90;;;;;;4980689;28;20195;-85
2023/01/19 06:34:42;;;;;;;25.03;16.80;;;2.10;99.90;;;;;;4982125;28;20192;-88
2023/01/19 06:37:11;;;;;;;24.23;15.77;;;2.20;99.90;;;;;;4970243;28;20168;-88
2023/01/19 06:39:41;;;;;;;24.77;16.53;;;2.30;99.90;;;;;;4964815;28;20168;-89
2023/01/19 06:42:07;;;;;;;27.93;16.33;;;2.40;99.90;;;;;;4962170;28;20205;-87
2023/01/19 06:44:34;;;;;;;27.17;16.60;;;2.60;99.90;;;;;;4961285;28;20246;-86
2023/01/19 06:47:17;;;;;;;32.03;17.77;;;2.40;99.90;;;;;;4990242;28;20163;-86
2023/01/19 06:49:43;;;;;;;27.57;15.93;;;2.40;99.90;;;;;;5002424;28;20198;-84
2023/01/19 06:52:10;;;;;;;24.13;16.97;;;2.40;99.90;;;;;;4986603;28;20206;-86
2023/01/19 06:54:39;;;;;;;25.27;16.90;;;2.40;99.90;;;;;;4963876;28;20199;-86
2023/01/19 06:57:04;;;;;;;30.30;17.73;;;2.40;99.90;;;;;;4968180;28;20186;-84
2023/01/19 06:59:30;;;;;;;27.63;17.47;;;2.40;99.90;;;;;;4961914;28;20184;-86
2023/01/19 07:01:56;;;;;;;25.70;17.63;;;2.40;99.90;;;;;;4969701;28;20163;-85
2023/01/19 07:04:22;;;;;;;27.53;17.57;;;2.40;99.90;;;;;;4974647;28;20205;-86
2023/01/19 07:06:47;;;;;;;27.27;17.40;;;2.40;99.90;;;;;;4960176;28;20199;-86
2023/01/19 07:09:13;;;;;;;25.33;16.93;;;2.30;99.90;;;;;;4960766;28;20176;-85
2023/01/19 07:11:39;;;;;;;26.20;18.33;;;2.40;99.90;;;;;;4968181;28;20340;-86
2023/01/19 07:14:04;;;;;;;26.53;17.47;;;2.40;99.90;;;;;;4974554;28;20188;-85
2023/01/19 07:16:30;;;;;;;26.83;17.73;;;2.50;99.90;;;;;;4961612;28;20172;-84
2023/01/19 07:18:57;;;;;;;25.70;18.07;;;2.40;99.90;;;;;;4944852;28;20180;-84
2023/01/19 07:21:23;;;;;;;28.10;18.40;;;2.30;99.90;;;;;;4960105;28;20711;-84
2023/01/19 07:23:53;;;;;;;28.17;18.50;;;2.20;99.90;;;;;;4963044;28;20175;-83
2023/01/19 07:26:20;;;;;;;28.17;17.57;;;2.10;99.90;;;;;;4963337;28;20211;-84
2023/01/19 07:28:46;;;;;;;27.13;17.23;;;2.30;99.90;;;;;;4961276;28;20179;-83
2023/01/19 07:31:13;;;;;;;28.23;17.33;;;2.30;99.90;;;;;;4980959;28;20168;-83
2023/01/19 07:33:39;;;;;;;32.73;17.60;;;2.20;99.90;;;;;;4982381;28;20176;-83
2023/01/19 07:36:05;;;;;;;32.97;19.20;;;2.20;99.90;;;;;;4976698;28;20191;-84
2023/01/19 07:38:31;;;;;;;30.27;17.93;;;2.30;99.90;;;;;;4985724;28;20231;-84
2023/01/19 07:41:02;;;;;;;36.37;18.97;;;2.40;99.90;;;;;;4978193;28;20517;-84
2023/01/19 07:43:28;;;;;;;29.70;18.10;;;2.50;99.90;;;;;;4959389;28;20196;-84
2023/01/19 07:45:58;;;;;;;34.27;18.37;;;2.30;99.90;;;;;;4960120;28;20227;-84
2023/01/19 07:48:24;;;;;;;27.23;17.57;;;2.20;99.90;;;;;;4960508;28;20168;-83
2023/01/19 07:50:50;;;;;;;29.60;19.13;;;2.40;99.90;;;;;;4960539;28;20180;-85
2023/01/19 07:53:16;;;;;;;29.37;18.93;;;2.40;99.90;;;;;;4960333;28;20172;-84
2023/01/19 07:55:42;;;;;;;29.60;19.77;;;2.50;99.90;;;;;;4960344;28;20195;-84
2023/01/19 07:58:08;;;;;;;31.67;19.57;;;2.50;99.90;;;;;;4960249;28;20176;-84
2023/01/19 08:00:35;;;;;;;31.73;20.37;;;2.50;99.90;;;;;;4959713;28;20658;-84
2023/01/19 08:03:02;;;;;;;28.70;18.33;;;2.60;99.90;;;;;;4960350;28;20168;-83
2023/01/19 08:05:28;;;;;;;30.37;18.60;;;2.50;99.90;;;;;;4963391;28;20691;-84
2023/01/19 08:07:59;;;;;;;32.20;19.47;;;2.50;99.90;;;;;;4983473;28;20187;-83
2023/01/19 08:10:27;;;;;;;28.33;18.23;;;2.60;99.90;;;;;;4977472;28;20179;-83
2023/01/19 08:12:54;;;;;;;29.53;19.40;;;2.50;99.90;;;;;;4960287;28;20180;-83
2023/01/19 08:15:22;;;;;;;31.83;19.27;;;2.70;99.90;;;;;;4960885;28;20187;-83
2023/01/19 08:18:10;;;;;;;31.30;18.43;;;2.40;99.90;;;;;;4960502;28;20168;-84
2023/01/19 08:20:36;;;;;;;29.27;19.33;;;2.40;99.90;;;;;;4959634;28;20182;-84
2023/01/19 08:23:03;;;;;;;31.23;19.90;;;2.70;99.90;;;;;;4959422;28;20650;-83
2023/01/19 08:25:43;;;;;;;30.97;18.53;;;2.50;99.90;;;;;;4960074;28;20311;-84
2023/01/19 08:28:10;;;;;;;30.13;19.13;;;2.60;99.90;;;;;;4959585;28;20176;-83
2023/01/19 08:30:37;;;;;;;34.23;20.43;;;2.50;99.90;;;;;;4959523;28;20176;-84
2023/01/19 08:33:03;;;;;;;34.20;19.10;;;2.50;99.90;;;;;;4960423;28;20270;-84
2023/01/19 08:35:38;;;;;;;34.67;19.77;;;2.60;99.90;;;;;;4960303;28;20670;-84
2023/01/19 08:38:05;;;;;;;29.87;18.87;;;2.50;99.90;;;;;;4963432;28;20218;-83
2023/01/19 08:40:35;;;;;;;30.37;19.23;;;2.50;99.90;;;;;;4969160;28;20172;-83
2023/01/19 08:43:06;;;;;;;35.37;20.90;;;2.50;99.90;;;;;;4960347;28;20191;-83
2023/01/19 08:45:33;;;;;;;38.00;22.10;;;2.50;99.90;;;;;;4960823;28;20613;-83
2023/01/19 08:47:59;;;;;;;32.30;18.57;;;2.70;99.90;;;;;;4961205;28;20203;-83
2023/01/19 08:50:26;;;;;;;30.97;19.63;;;2.70;99.90;;;;;;4959799;28;20171;-83
2023/01/19 08:52:54;;;;;;;28.23;18.30;;;2.70;99.90;;;;;;4978100;28;20163;-84
2023/01/19 08:55:20;;;;;;;36.70;20.80;;;2.60;99.90;;;;;;4982718;28;20207;-84
2023/01/19 08:57:53;;;;;;;34.87;19.00;;;2.60;99.90;;;;;;4982029;28;20163;-84
2023/01/19 09:00:19;;;;;;;29.20;17.93;;;2.70;99.90;;;;;;4982647;28;20172;-83
2023/01/19 09:02:45;;;;;;;33.17;19.93;;;2.40;99.90;;;;;;4974917;28;20284;-85
2023/01/19 09:05:14;;;;;;;34.83;19.70;;;2.50;99.90;;;;;;4965193;28;20203;-83
2023/01/19 09:07:47;;;;;;;36.83;19.67;;;2.50;99.90;;;;;;4969010;28;20239;-85
2023/01/19 09:10:21;;;;;;;33.47;19.20;;;2.60;99.90;;;;;;4983077;28;20183;-84
2023/01/19 09:12:46;;;;;;;31.80;19.57;;;2.50;99.90;;;;;;4966325;28;20771;-84
2023/01/19 09:15:44;;;;;;;35.77;19.17;;;2.60;99.90;;;;;;4974018;28;20176;-83
2023/01/19 09:18:13;;;;;;;35.17;19.53;;;2.50;99.90;;;;;;4974308;28;20183;-85
2023/01/19 09:20:41;;;;;;;35.43;19.17;;;2.60;99.90;;;;;;4962460;28;20187;-84
2023/01/19 09:23:11;;;;;;;33.20;18.93;;;2.60;99.90;;;;;;4959356;28;20179;-84
2023/01/19 09:25:38;;;;;;;35.07;18.57;;;2.60;99.90;;;;;;4958144;28;20224;-84
2023/01/19 09:28:13;;;;;;;35.73;17.70;;;2.50;99.90;;;;;;4957841;28;20222;-84
2023/01/19 09:30:40;;;;;;;34.57;18.73;;;2.40;99.90;;;;;;4958216;28;20179;-84
2023/01/19 09:33:10;;;;;;;32.80;18.50;;;2.40;99.90;;;;;;4942937;28;20185;-84
2023/01/19 09:35:37;;;;;;;33.23;19.10;;;2.60;99.90;;;;;;4958015;28;20175;-83
2023/01/19 09:38:03;;;;;;;34.80;19.47;;;2.60;99.90;;;;;;4958882;28;20175;-83
2023/01/19 09:40:30;;;;;;;36.57;17.43;;;2.70;99.90;;;;;;4967949;28;20176;-83
2023/01/19 09:43:11;;;;;;;39.10;18.90;;;2.50;99.90;;;;;;4985955;28;20195;-84
2023/01/19 09:45:56;;;;;;;29.13;17.10;;;2.50;99.90;;;;;;4972895;28;20276;-83
2023/01/19 09:48:50;;;;;;;31.27;18.27;;;2.60;99.90;;;;;;4977195;28;20246;-84
2023/01/19 09:51:24;;;;;;;36.77;18.37;;;2.70;99.90;;;;;;4958759;28;20175;-84
2023/01/19 09:54:09;;;;;;;32.50;18.30;;;2.70;99.90;;;;;;4976487;28;20172;-83
2023/01/19 09:56:35;;;;;;;29.53;17.53;;;2.70;99.90;;;;;;4961556;28;20167;-84
2023/01/19 09:59:16;;;;;;;35.57;17.97;;;2.60;99.90;;;;;;4969772;28;20706;-84
2023/01/19 10:02:09;;;;;;;28.80;16.40;;;2.60;99.90;;;;;;4974642;28;20152;-83
2023/01/19 10:05:05;;;;;;;30.20;18.20;;;2.70;99.90;;;;;;4982373;28;20172;-82
2023/01/19 10:07:36;;;;;;;32.80;18.80;;;2.80;99.90;;;;;;4947932;28;20543;-84
2023/01/19 10:10:18;;;;;;;34.47;16.93;;;2.90;99.90;;;;;;4957304;28;20254;-84
2023/01/19 10:13:21;;;;;;;31.87;16.40;;;2.70;99.90;;;;;;4963746;28;20168;-83
2023/01/19 10:16:06;;;;;;;29.63;15.87;;;2.70;99.90;;;;;;4961473;28;20210;-82
2023/01/19 10:18:46;;;;;;;33.80;15.63;;;2.90;99.90;;;;;;4975193;28;20214;-84
2023/01/19 10:21:37;;;;;;;34.13;16.80;;;2.90;99.90;;;;;;4958079;28;20249;-83
2023/01/19 10:24:05;;;;;;;26.83;15.80;;;2.90;99.90;;;;;;4958875;28;20176;-84
2023/01/19 10:26:47;;;;;;;31.33;16.70;;;2.90;99.90;;;;;;4975299;28;20211;-84
2023/01/19 10:29:19;;;;;;;28.30;16.40;;;2.80;99.90;;;;;;4957995;28;20178;-84
2023/01/19 10:31:45;;;;;;;32.27;17.23;;;2.70;99.90;;;;;;4974851;28;20628;-84
2023/01/19 10:34:17;;;;;;;30.93;16.37;;;2.70;99.90;;;;;;4957313;28;20175;-85
2023/01/19 10:36:45;;;;;;;30.60;16.93;;;2.70;99.90;;;;;;4974975;28;20163;-85
2023/01/19 10:39:15;;;;;;;25.60;17.07;;;2.80;99.90;;;;;;4958100;28;20238;-83
2023/01/19 10:41:48;;;;;;;29.70;16.80;;;2.90;99.90;;;;;;4957519;28;20226;-82
2023/01/19 10:44:26;;;;;;;30.40;17.50;;;2.90;99.90;;;;;;4957354;28;20211;-82
2023/01/19 10:46:55;;;;;;;31.03;16.57;;;2.80;99.90;;;;;;4957609;28;20218;-85
2023/01/19 10:49:49;;;;;;;26.97;16.17;;;2.70;99.90;;;;;;4957451;28;20215;-85
2023/01/19 10:52:32;;;;;;;31.57;17.20;;;2.70;99.90;;;;;;4954068;28;20187;-84
2023/01/19 10:54:59;;;;;;;27.37;16.17;;;2.70;99.90;;;;;;4958553;28;20199;-84
2023/01/19 10:57:29;;;;;;;31.40;17.03;;;2.80;99.90;;;;;;4961709;28;20183;-84
2023/01/19 10:59:55;;;;;;;33.60;18.60;;;2.90;99.90;;;;;;4975298;28;20175;-83
2023/01/19 11:02:26;;;;;;;29.83;17.73;;;2.90;99.90;;;;;;4984806;28;20272;-83
2023/01/19 11:05:00;;;;;;;31.30;15.90;;;2.90;99.90;;;;;;4984625;28;20195;-83
2023/01/19 11:07:32;;;;;;;28.33;16.90;;;3.00;99.90;;;;;;4978470;28;20275;-83
2023/01/19 11:10:19;;;;;;;28.87;17.00;;;2.90;99.90;;;;;;4984806;28;20187;-83
2023/01/19 11:13:14;;;;;;;27.03;16.03;;;3.00;99.90;;;;;;4970577;28;20663;-84
2023/01/19 11:15:46;;;;;;;30.00;16.63;;;3.10;99.90;;;;;;4961875;28;20184;-83
2023/01/19 11:18:42;;;;;;;29.10;17.13;;;3.10;99.90;;;;;;4960917;28;20263;-84
2023/01/19 11:21:15;;;;;;;30.13;18.33;;;3.20;99.90;;;;;;4960316;28;20179;-85
2023/01/19 11:23:59;;;;;;;31.13;17.43;;;3.20;99.90;;;;;;4969013;28;20195;-83
2023/01/19 11:27:01;;;;;;;30.10;16.83;;;3.00;99.90;;;;;;4981543;28;20277;-85
2023/01/19 11:29:30;;;;;;;31.80;18.07;;;2.90;99.90;;;;;;4954347;28;20191;-85
2023/01/19 11:32:17;;;;;;;33.20;19.03;;;3.00;99.90;;;;;;4960739;28;20609;-82
2023/01/19 11:34:43;;;;;;;30.33;18.50;;;3.10;99.90;;;;;;4960304;28;20176;-82
2023/01/19 11:37:15;;;;;;;29.90;18.70;;;3.10;99.90;;;;;;4945766;28;20186;-85
2023/01/19 11:39:51;;;;;;;30.70;18.53;;;3.00;99.90;;;;;;4961512;28;20255;-83
2023/01/19 11:42:18;;;;;;;33.47;18.80;;;3.10;99.90;;;;;;4960131;28;20171;-84
2023/01/19 11:44:47;;;;;;;29.53;18.20;;;3.20;99.90;;;;;;4959798;28;20203;-83
2023/01/19 11:47:53;;;;;;;31.97;19.30;;;3.20;99.90;;;;;;4960521;28;20188;-85
2023/01/19 11:50:33;;;;;;;31.20;18.30;;;3.20;99.90;;;;;;4976372;28;20187;-84
2023/01/19 11:53:06;;;;;;;26.47;17.80;;;3.20;99.90;;;;;;4959555;28;20175;-83
2023/01/19 11:55:58;;;;;;;30.93;17.77;;;3.40;99.90;;;;;;4960074;28;20282;-83
2023/01/19 11:58:25;;;;;;;29.23;17.53;;;3.40;99.90;;;;;;4960357;28;20288;-82
2023/01/19 12:00:57;;;;;;;34.50;25.27;;;3.40;99.90;;;;;;4959548;28;20167;-83
2023/01/19 12:03:53;;;;;;;30.20;18.27;;;3.40;99.90;;;;;;4976946;28;20171;-83
2023/01/19 12:06:33;;;;;;;27.93;16.13;;;3.40;99.90;;;;;;4959380;28;20291;-83
2023/01/19 12:09:50;;;;;;;25.23;16.40;;;3.30;99.90;;;;;;4976640;28;20185;-83
2023/01/19 12:12:22;;;;;;;27.07;16.13;;;3.20;99.90;;;;;;4956389;28;20179;-82
2023/01/19 12:14:56;;;;;;;24.37;16.53;;;3.30;99.90;;;;;;4987538;28;20179;-82
2023/01/19 12:17:32;;;;;;;26.50;16.47;;;3.20;99.90;;;;;;4988033;28;20163;-81
2023/01/19 12:20:22;;;;;;;30.87;16.87;;;3.30;99.90;;;;;;5000302;28;20167;-83
2023/01/19 12:23:26;;;;;;;24.63;14.63;;;3.40;99.90;;;;;;5000638;28;20175;-82
2023/01/19 12:26:21;;;;;;;26.87;16.77;;;3.30;99.90;;;;;;4986166;28;20217;-83
2023/01/19 12:29:17;;;;;;;24.60;16.97;;;3.40;99.90;;;;;;4999998;28;20151;-84
2023/01/19 12:31:43;;;;;;;25.27;15.83;;;3.50;99.90;;;;;;4999598;28;20267;-84
2023/01/19 12:34:24;;;;;;;25.27;16.77;;;3.50;99.90;;;;;;4979818;28;20171;-84
2023/01/19 12:36:51;;;;;;;25.50;16.57;;;3.60;99.90;;;;;;4978636;28;20179;-82
2023/01/19 12:39:19;;;;;;;22.93;15.87;;;3.80;99.90;;;;;;4979226;28;20179;-84
2023/01/19 12:41:46;;;;;;;25.40;16.13;;;3.90;99.90;;;;;;4978961;28;20604;-83
2023/01/19 12:44:13;;;;;;;21.63;15.50;;;3.90;99.90;;;;;;4996798;28;20206;-84
2023/01/19 12:47:02;;;;;;;28.80;17.93;;;3.90;99.90;;;;;;4978740;28;20206;-84
2023/01/19 12:49:35;;;;;;;27.80;17.17;;;4.10;99.90;;;;;;4980040;28;20175;-84
2023/01/19 12:52:29;;;;;;;26.40;16.97;;;4.00;99.90;;;;;;4982272;28;20183;-84
2023/01/19 12:55:23;;;;;;;24.40;15.60;;;4.00;99.40;;;;;;5000041;28;20190;-83
2023/01/19 12:57:57;;;;;;;25.20;15.57;;;3.80;99.90;;;;;;5000216;28;20203;-82
2023/01/19 13:00:24;;;;;;;25.93;14.63;;;3.90;99.90;;;;;;5000934;28;20186;-82
2023/01/19 13:03:01;;;;;;;23.47;16.17;;;3.90;99.90;;;;;;5000977;28;20183;-83
2023/01/19 13:05:39;;;;;;;22.10;15.07;;;4.00;99.90;;;;;;4998088;28;20221;-83
2023/01/19 13:08:05;;;;;;;20.40;14.83;;;4.00;99.90;;;;;;5016801;28;20166;-83
2023/01/19 13:11:05;;;;;;;22.63;16.20;;;3.90;99.90;;;;;;5000723;28;20168;-84